Time;durP1;ratioP1;P1;durP2;ratioP2;P2;SDS_P1;SDS_P2;PMS_P1;PMS_P2;Temp;Humidity;BMP_temperature;BMP_pressure;BME280_temperature;BME280_humidity;BME280_pressure;Samples;Min_cycle;Max_cycle;Signal;HPM_P1;HPM_P2
2021/06/07 00:00:47;;;;;;;1.10;1.00;;;;;;;18.18;100.00;95921.34;4996170;28;20598;-90
2021/06/07 00:03:13;;;;;;;1.42;1.20;;;;;;;18.21;100.00;95917.53;4996334;28;20214;-86
2021/06/07 00:05:39;;;;;;;1.30;1.20;;;;;;;18.17;100.00;95922.38;4996356;28;20348;-89
2021/06/07 00:08:06;;;;;;;1.15;1.08;;;;;;;18.19;100.00;95920.34;4996462;28;20234;-87
2021/06/07 00:10:33;;;;;;;1.65;1.40;;;;;;;18.21;100.00;95913.13;4995355;28;20205;-89
2021/06/07 00:13:00;;;;;;;1.30;1.20;;;;;;;18.21;100.00;95912.31;4994983;28;20211;-88
2021/06/07 00:15:29;;;;;;;1.20;1.10;;;;;;;18.21;100.00;95915.72;4994707;28;20205;-88
2021/06/07 00:17:55;;;;;;;2.22;1.35;;;;;;;18.23;100.00;95921.53;4995318;28;20618;-88
2021/06/07 00:20:30;;;;;;;2.45;1.30;;;;;;;18.23;99.83;95918.91;4995025;28;20199;-88
2021/06/07 00:22:56;;;;;;;1.27;1.17;;;;;;;18.20;99.73;95916.72;4995290;28;20208;-88
2021/06/07 00:25:23;;;;;;;1.27;1.17;;;;;;;18.22;99.77;95917.31;4994404;28;20199;-87
2021/06/07 00:27:49;;;;;;;1.40;1.30;;;;;;;18.24;99.19;95923.13;4994922;28;20746;-86
2021/06/07 00:30:16;;;;;;;1.23;1.15;;;;;;;18.23;99.65;95920.72;4994818;28;20215;-87
2021/06/07 00:32:42;;;;;;;2.08;1.30;;;;;;;18.21;99.08;95917.53;4993916;28;20231;-88
2021/06/07 00:35:09;;;;;;;1.67;1.50;;;;;;;18.19;99.55;95915.13;4994608;28;20879;-87
2021/06/07 00:37:35;;;;;;;1.45;1.35;;;;;;;18.17;99.65;95914.56;4994971;28;20306;-87
2021/06/07 00:40:01;;;;;;;1.38;1.27;;;;;;;18.16;100.00;95918.16;4994517;28;20207;-88
2021/06/07 00:42:28;;;;;;;2.40;1.30;;;;;;;18.16;100.00;95914.75;4994516;28;20208;-88
2021/06/07 00:44:54;;;;;;;1.90;1.50;;;;;;;18.19;100.00;95911.72;4994464;28;20226;-88
2021/06/07 00:47:21;;;;;;;3.42;1.30;;;;;;;18.21;99.79;95914.94;4994704;28;20310;-87
2021/06/07 00:49:47;;;;;;;1.40;1.30;;;;;;;18.11;100.00;95910.19;4996185;28;20207;-89
2021/06/07 00:52:13;;;;;;;1.95;1.40;;;;;;;18.08;100.00;95912.47;5002743;28;20207;-89
2021/06/07 00:54:39;;;;;;;1.33;1.20;;;;;;;18.09;100.00;95911.44;5001477;28;20200;-88
2021/06/07 00:57:05;;;;;;;1.63;1.40;;;;;;;18.07;100.00;95903.84;5000110;28;20247;-88
2021/06/07 00:59:32;;;;;;;1.48;1.35;;;;;;;18.10;100.00;95902.59;5003575;28;20254;-90
2021/06/07 01:01:59;;;;;;;1.58;1.48;;;;;;;18.12;100.00;95903.97;5003638;28;20196;-89
2021/06/07 01:04:25;;;;;;;1.55;1.45;;;;;;;18.12;100.00;95897.97;5002627;28;20203;-85
2021/06/07 01:06:51;;;;;;;1.40;1.30;;;;;;;18.14;99.47;95896.72;5002687;28;20227;-88
2021/06/07 01:09:17;;;;;;;1.92;1.70;;;;;;;18.07;100.00;95903.84;5003712;28;20199;-89
2021/06/07 01:11:43;;;;;;;1.60;1.50;;;;;;;18.01;100.00;95899.47;5004651;28;20207;-89
2021/06/07 01:14:10;;;;;;;2.00;1.40;;;;;;;17.95;100.00;95895.13;4998391;28;20211;-89
2021/06/07 01:16:38;;;;;;;2.10;1.35;;;;;;;17.98;100.00;95892.09;4996045;28;20234;-89
2021/06/07 01:19:07;;;;;;;1.52;1.42;;;;;;;17.94;100.00;95896.94;4995493;28;20274;-89
2021/06/07 01:21:33;;;;;;;1.50;1.40;;;;;;;17.95;100.00;95892.50;4994858;28;20211;-89
2021/06/07 01:24:00;;;;;;;1.42;1.30;;;;;;;17.95;100.00;95895.91;4996089;28;20200;-89
2021/06/07 01:26:27;;;;;;;2.05;1.30;;;;;;;17.99;100.00;95898.91;4995304;28;20258;-88
2021/06/07 01:28:54;;;;;;;1.30;1.20;;;;;;;18.01;100.00;95898.69;4994838;28;20229;-88
2021/06/07 01:31:20;;;;;;;2.50;1.48;;;;;;;17.98;100.00;95897.28;4995195;28;20671;-89
2021/06/07 01:33:49;;;;;;;1.40;1.30;;;;;;;17.98;100.00;95899.09;4995422;28;20231;-89
2021/06/07 01:36:15;;;;;;;1.50;1.40;;;;;;;17.95;100.00;95898.53;4995065;28;20694;-89
2021/06/07 01:38:41;;;;;;;1.40;1.30;;;;;;;17.89;100.00;95896.00;4995183;28;20881;-88
2021/06/07 01:41:13;;;;;;;1.95;1.38;;;;;;;17.90;100.00;95894.94;4994792;28;20594;-89
2021/06/07 01:43:40;;;;;;;1.75;1.40;;;;;;;17.87;99.87;95900.63;4994492;28;20271;-90
2021/06/07 01:46:06;;;;;;;1.38;1.30;;;;;;;17.90;99.88;95900.97;4995008;28;20291;-89
2021/06/07 01:48:32;;;;;;;1.40;1.30;;;;;;;17.92;99.91;95908.56;4994332;28;20706;-89
2021/06/07 01:51:01;;;;;;;1.35;1.30;;;;;;;17.88;99.96;95900.41;4993451;28;20612;-89
2021/06/07 01:53:29;;;;;;;1.73;1.55;;;;;;;17.89;99.74;95896.78;4994381;28;20270;-87
2021/06/07 01:55:57;;;;;;;1.50;1.40;;;;;;;17.85;99.81;95900.81;4990979;28;20259;-89
2021/06/07 01:58:25;;;;;;;1.92;1.27;;;;;;;17.86;99.81;95897.22;4991380;28;20219;-88
2021/06/07 02:00:55;;;;;;;1.55;1.45;;;;;;;17.90;99.53;95895.75;4991853;28;20259;-87
2021/06/07 02:03:22;;;;;;;1.60;1.40;;;;;;;17.89;99.93;95898.59;4992091;28;20667;-87
2021/06/07 02:05:52;;;;;;;1.42;1.33;;;;;;;17.86;100.00;95892.00;4991954;28;20246;-87
2021/06/07 02:08:19;;;;;;;2.45;1.50;;;;;;;17.87;100.00;95895.41;4991577;28;20357;-87
2021/06/07 02:10:49;;;;;;;1.70;1.60;;;;;;;17.81;100.00;95891.03;4991514;28;20203;-88
2021/06/07 02:13:17;;;;;;;1.40;1.30;;;;;;;17.82;100.00;95896.03;4991444;28;20207;-87
2021/06/07 02:15:52;;;;;;;1.50;1.40;;;;;;;17.80;100.00;95903.28;4991430;28;20211;-86
2021/06/07 02:18:18;;;;;;;1.60;1.50;;;;;;;17.82;100.00;95895.25;4991181;28;20225;-89
2021/06/07 02:20:44;;;;;;;1.52;1.42;;;;;;;17.81;100.00;95904.88;4990876;28;20204;-88
2021/06/07 02:23:10;;;;;;;1.83;1.50;;;;;;;17.80;100.00;95895.44;4991010;28;20578;-88
2021/06/07 02:25:36;;;;;;;1.60;1.50;;;;;;;17.78;100.00;95900.06;4990772;28;20275;-88
2021/06/07 02:28:02;;;;;;;1.60;1.50;;;;;;;17.81;100.00;95906.69;4991441;28;20593;-88
2021/06/07 02:30:30;;;;;;;1.67;1.52;;;;;;;17.80;100.00;95895.44;5003483;28;20659;-87
2021/06/07 02:32:59;;;;;;;1.50;1.40;;;;;;;17.80;100.00;95897.25;4990804;28;20258;-88
2021/06/07 02:35:26;;;;;;;1.77;1.67;;;;;;;17.81;100.00;95904.88;4991204;28;20207;-87
2021/06/07 02:37:55;;;;;;;2.67;1.52;;;;;;;17.83;100.00;95909.88;4991847;28;20428;-87
2021/06/07 02:40:23;;;;;;;1.40;1.30;;;;;;;17.87;100.00;95904.03;4991605;28;20589;-87
2021/06/07 02:42:49;;;;;;;2.00;1.60;;;;;;;17.85;100.00;95911.25;4991604;28;20578;-86
2021/06/07 02:45:18;;;;;;;1.88;1.60;;;;;;;17.90;100.00;95898.34;4992156;28;20667;-86
2021/06/07 02:47:46;;;;;;;1.77;1.60;;;;;;;17.91;100.00;95902.56;4992891;28;20239;-88
2021/06/07 02:50:17;;;;;;;2.55;1.63;;;;;;;17.89;100.00;95896.78;4992548;28;20207;-89
2021/06/07 02:52:47;;;;;;;1.55;1.45;;;;;;;17.89;100.00;95893.38;4992479;28;20199;-88
2021/06/07 02:55:15;;;;;;;1.88;1.73;;;;;;;17.92;100.00;95892.94;4992914;28;20265;-88
2021/06/07 02:57:41;;;;;;;1.63;1.52;;;;;;;17.93;99.95;95899.75;4992543;28;20852;-87
2021/06/07 03:00:08;;;;;;;3.58;1.65;;;;;;;17.92;99.68;95893.72;4992621;28;20267;-88
2021/06/07 03:02:35;;;;;;;1.33;1.30;;;;;;;17.83;99.49;95892.44;4991782;28;20250;-88
2021/06/07 03:05:01;;;;;;;2.00;1.63;;;;;;;17.80;99.78;95900.66;4992338;28;20290;-86
2021/06/07 03:07:29;;;;;;;1.63;1.52;;;;;;;17.82;99.83;95897.84;4991682;28;20227;-89
2021/06/07 03:09:55;;;;;;;1.75;1.65;;;;;;;17.78;99.74;95899.28;4992009;28;20263;-88
2021/06/07 03:12:21;;;;;;;1.60;1.50;;;;;;;17.74;99.69;95898.91;4992030;28;20214;-89
2021/06/07 03:14:47;;;;;;;1.70;1.60;;;;;;;17.66;100.00;95896.59;4991744;28;20227;-90
2021/06/07 03:17:13;;;;;;;1.77;1.67;;;;;;;17.59;100.00;95896.59;4992081;28;20234;-88
2021/06/07 03:19:39;;;;;;;2.13;1.80;;;;;;;17.61;100.00;95901.59;4992794;28;20190;-89
2021/06/07 03:22:05;;;;;;;2.17;1.98;;;;;;;17.65;100.00;95904.59;4992631;28;21011;-87
2021/06/07 03:24:33;;;;;;;2.10;1.90;;;;;;;17.63;100.00;95898.78;4992147;28;20685;-87
2021/06/07 03:27:00;;;;;;;1.80;1.70;;;;;;;17.63;100.00;95899.56;4992787;28;20223;-88
2021/06/07 03:29:26;;;;;;;1.85;1.75;;;;;;;17.63;100.00;95911.78;4992246;28;20214;-87
2021/06/07 03:31:52;;;;;;;2.20;2.00;;;;;;;17.63;100.00;95904.78;4992272;28;20678;-88
2021/06/07 03:34:18;;;;;;;1.92;1.75;;;;;;;17.67;100.00;95906.00;4991727;28;20251;-88
2021/06/07 03:36:44;;;;;;;2.13;1.55;;;;;;;17.72;100.00;95907.94;4992166;28;20203;-88
2021/06/07 03:39:10;;;;;;;3.42;1.92;;;;;;;17.74;99.94;95906.72;4992321;28;20666;-87
2021/06/07 03:41:37;;;;;;;2.03;1.92;;;;;;;17.76;99.89;95903.91;4991774;28;20387;-88
2021/06/07 03:44:03;;;;;;;2.00;1.90;;;;;;;17.76;99.61;95909.09;4991842;28;20199;-88
2021/06/07 03:46:30;;;;;;;2.20;2.00;;;;;;;17.75;99.70;95910.13;4991627;28;20223;-88
2021/06/07 03:48:56;;;;;;;2.20;2.05;;;;;;;17.70;100.00;95913.38;4991410;28;20229;-89
2021/06/07 03:51:21;;;;;;;2.90;2.30;;;;;;;17.72;100.00;95918.34;4991613;28;20203;-87
2021/06/07 03:53:47;;;;;;;3.08;2.60;;;;;;;17.75;100.00;95915.31;4991761;28;20255;-88
2021/06/07 03:56:13;;;;;;;2.40;2.30;;;;;;;17.77;100.00;95914.09;4991371;28;20565;-87
2021/06/07 03:58:41;;;;;;;2.38;2.17;;;;;;;17.82;99.77;95923.91;4991678;28;20578;-86
2021/06/07 04:01:07;;;;;;;3.15;2.33;;;;;;;17.85;99.72;95923.47;4979481;28;20567;-86
2021/06/07 04:03:34;;;;;;;2.53;2.40;;;;;;;17.86;99.68;95923.25;4992431;28;20286;-87
2021/06/07 04:06:00;;;;;;;2.30;2.10;;;;;;;17.87;99.83;95922.25;4992199;28;20231;-88
2021/06/07 04:08:26;;;;;;;2.30;2.20;;;;;;;17.87;99.38;95917.03;4991787;28;20341;-88
2021/06/07 04:10:52;;;;;;;2.60;2.40;;;;;;;17.87;99.06;95918.84;4988571;28;20377;-87
2021/06/07 04:13:18;;;;;;;3.67;2.70;;;;;;;17.93;98.38;95923.19;4995634;28;20283;-86
2021/06/07 04:15:45;;;;;;;2.67;2.40;;;;;;;18.00;98.38;95913.50;4985646;28;20231;-87
2021/06/07 04:18:11;;;;;;;2.85;2.25;;;;;;;18.02;97.41;95914.09;4981407;28;20231;-87
2021/06/07 04:20:37;;;;;;;2.45;2.25;;;;;;;18.06;97.44;95915.28;5001020;28;20706;-88
2021/06/07 04:23:04;;;;;;;2.55;2.35;;;;;;;18.17;96.86;95918.97;5000716;28;20203;-84
2021/06/07 04:25:30;;;;;;;5.40;2.30;;;;;;;18.24;96.34;95917.09;5003539;28;20187;-84
2021/06/07 04:27:57;;;;;;;2.50;2.00;;;;;;;18.30;96.00;95924.03;5010107;28;20219;-87
2021/06/07 04:30:24;;;;;;;3.63;2.30;;;;;;;18.38;95.01;95921.16;4999168;28;20225;-85
2021/06/07 04:32:53;;;;;;;2.00;1.90;;;;;;;18.44;94.46;95922.13;4997903;28;20230;-85
2021/06/07 04:35:20;;;;;;;2.10;2.00;;;;;;;18.45;94.01;95918.50;4998673;28;20655;-85
2021/06/07 04:37:51;;;;;;;2.65;2.05;;;;;;;18.50;93.83;95914.19;4997872;28;20224;-86
2021/06/07 04:40:20;;;;;;;2.30;2.10;;;;;;;18.54;93.73;95917.19;4998638;28;20207;-86
2021/06/07 04:42:47;;;;;;;13.77;12.48;;;;;;;18.62;92.85;95922.16;4999354;28;20214;-85
2021/06/07 04:45:14;;;;;;;7.22;6.55;;;;;;;18.73;92.84;95915.38;4998576;28;20200;-87
2021/06/07 04:47:40;;;;;;;5.53;5.03;;;;;;;18.81;91.27;95923.72;4999264;28;20227;-86
2021/06/07 04:50:11;;;;;;;3.15;2.90;;;;;;;18.90;91.31;95919.78;4998377;28;20263;-85
2021/06/07 04:52:56;;;;;;;2.42;2.22;;;;;;;18.96;90.30;95923.34;4989659;28;20230;-86
2021/06/07 04:55:24;;;;;;;31.63;28.50;;;;;;;18.98;90.72;95918.69;4994111;28;20199;-85
2021/06/07 04:57:50;;;;;;;14.88;13.48;;;;;;;18.95;89.52;95926.97;4991014;28;20313;-86
2021/06/07 05:00:19;;;;;;;4.70;4.25;;;;;;;18.70;90.89;95928.84;4991759;28;20219;-87
2021/06/07 05:02:45;;;;;;;3.05;2.85;;;;;;;18.61;91.63;95923.94;4989596;28;20274;-88
2021/06/07 05:05:14;;;;;;;1.85;1.75;;;;;;;18.57;91.67;95921.97;4992976;28;20599;-85
2021/06/07 05:07:40;;;;;;;2.08;1.88;;;;;;;18.46;93.06;95920.09;4994137;28;20227;-86
2021/06/07 05:10:07;;;;;;;2.53;2.17;;;;;;;18.26;96.20;95930.72;4995902;28;20211;-87
2021/06/07 05:12:33;;;;;;;1.40;1.30;;;;;;;18.24;94.91;95922.31;4995852;28;20199;-88
2021/06/07 05:15:01;;;;;;;2.25;1.50;;;;;;;18.25;95.06;95921.31;4995005;28;20281;-88
2021/06/07 05:17:27;;;;;;;1.30;1.20;;;;;;;18.29;95.22;95927.66;4996434;28;20289;-88
2021/06/07 05:19:53;;;;;;;3.53;1.50;;;;;;;18.33;95.65;95930.63;4995457;28;20214;-88
2021/06/07 05:22:20;;;;;;;2.67;1.70;;;;;;;18.34;95.46;95925.22;4995082;28;20200;-88
2021/06/07 05:24:47;;;;;;;1.60;1.50;;;;;;;18.30;95.69;95929.25;4995484;28;20215;-88
2021/06/07 05:27:13;;;;;;;2.60;1.70;;;;;;;18.19;98.99;95930.78;4994874;28;20224;-88
2021/06/07 05:29:39;;;;;;;2.03;1.60;;;;;;;18.25;97.44;95926.53;4995305;28;20200;-88
2021/06/07 05:32:06;;;;;;;1.88;1.77;;;;;;;18.25;98.79;95929.94;4995907;28;20209;-88
2021/06/07 05:34:32;;;;;;;2.92;1.10;;;;;;;18.22;95.12;95919.94;4995340;28;20207;-88
2021/06/07 05:36:57;;;;;;;1.13;1.13;;;;;;;18.19;95.59;95930.78;4995624;28;20728;-87
2021/06/07 05:39:26;;;;;;;1.52;1.42;;;;;;;18.25;95.83;95926.53;4995246;28;20204;-88
2021/06/07 05:41:52;;;;;;;1.40;1.30;;;;;;;18.34;94.60;95929.63;4995873;28;20274;-87
2021/06/07 05:44:18;;;;;;;1.40;1.17;;;;;;;18.32;94.00;95924.63;4996303;28;20210;-87
2021/06/07 05:46:47;;;;;;;1.77;1.30;;;;;;;18.37;94.22;95924.78;4994953;28;20883;-87
2021/06/07 05:49:13;;;;;;;1.40;1.30;;;;;;;18.43;93.89;95936.97;4995038;28;20227;-88
2021/06/07 05:51:39;;;;;;;1.50;1.35;;;;;;;18.47;93.37;95932.13;4991867;28;20211;-84
2021/06/07 05:54:05;;;;;;;1.42;1.10;;;;;;;18.53;92.55;95932.03;4995957;28;20283;-87
2021/06/07 05:56:32;;;;;;;1.42;1.20;;;;;;;18.66;91.28;95936.34;4998398;28;20211;-86
2021/06/07 05:58:58;;;;;;;2.80;1.10;;;;;;;18.78;90.80;95937.19;4996410;28;20227;-87
2021/06/07 06:01:25;;;;;;;1.20;1.10;;;;;;;18.89;89.81;95935.66;4996503;28;20207;-87
2021/06/07 06:03:52;;;;;;;1.10;1.05;;;;;;;18.99;89.25;95935.94;4995345;28;20226;-85
2021/06/07 06:06:18;;;;;;;1.15;1.10;;;;;;;19.06;88.11;95938.44;4995695;28;20233;-85
2021/06/07 06:08:46;;;;;;;0.90;0.90;;;;;;;19.12;87.44;95940.19;4993678;28;20224;-86
2021/06/07 06:11:12;;;;;;;1.85;1.10;;;;;;;19.11;86.95;95935.97;4994020;28;20206;-86
2021/06/07 06:13:40;;;;;;;1.02;1.02;;;;;;;19.07;84.86;95946.06;4994511;28;20207;-84
2021/06/07 06:16:06;;;;;;;1.35;1.00;;;;;;;19.07;86.18;95940.03;4994846;28;20207;-87
2021/06/07 06:18:32;;;;;;;0.98;0.98;;;;;;;19.15;86.89;95944.97;4993623;28;20223;-84
2021/06/07 06:20:58;;;;;;;1.23;1.00;;;;;;;19.17;85.63;95942.94;4992892;28;20214;-84
2021/06/07 06:23:26;;;;;;;1.20;1.10;;;;;;;19.17;85.43;95940.31;4992187;28;20234;-85
2021/06/07 06:25:52;;;;;;;1.20;1.10;;;;;;;19.14;85.30;95949.41;4991013;28;20219;-86
2021/06/07 06:28:18;;;;;;;1.65;1.30;;;;;;;19.13;85.81;95941.78;4989997;28;20626;-84
2021/06/07 06:30:46;;;;;;;1.40;1.30;;;;;;;19.12;85.94;95940.19;4989217;28;20266;-84
2021/06/07 06:33:12;;;;;;;2.55;1.30;;;;;;;19.11;85.82;95947.22;4991547;28;20767;-85
2021/06/07 06:35:38;;;;;;;2.47;1.42;;;;;;;19.10;85.36;95950.84;4992532;28;20299;-86
2021/06/07 06:38:04;;;;;;;2.65;1.40;;;;;;;19.03;86.93;95944.94;4992718;28;20306;-85
2021/06/07 06:40:32;;;;;;;2.20;1.35;;;;;;;19.01;87.83;95949.56;4993212;28;20246;-87
2021/06/07 06:43:00;;;;;;;1.50;1.40;;;;;;;19.08;88.14;95950.28;4990579;28;20211;-86
2021/06/07 06:45:26;;;;;;;1.70;1.48;;;;;;;19.02;89.93;95950.38;4989001;28;20295;-87
2021/06/07 06:47:56;;;;;;;1.50;1.40;;;;;;;19.04;88.37;95954.34;4993426;28;20231;-87
2021/06/07 06:50:23;;;;;;;1.67;1.50;;;;;;;19.05;88.47;95952.53;4993550;28;20286;-86
2021/06/07 06:52:50;;;;;;;3.38;1.63;;;;;;;19.11;88.32;95954.25;4994411;28;20258;-86
2021/06/07 06:55:17;;;;;;;2.03;1.70;;;;;;;19.04;87.95;95950.94;4993457;28;20214;-86
2021/06/07 06:57:43;;;;;;;1.60;1.50;;;;;;;18.99;87.49;95951.59;4993969;28;20234;-87
2021/06/07 07:00:15;;;;;;;2.65;1.88;;;;;;;18.98;88.32;95950.81;4993709;28;20294;-86
2021/06/07 07:02:43;;;;;;;1.60;1.50;;;;;;;18.96;87.81;95947.63;4992752;28;20200;-87
2021/06/07 07:05:11;;;;;;;2.67;1.70;;;;;;;18.94;87.88;95943.63;4993259;28;20203;-88
2021/06/07 07:07:37;;;;;;;1.45;1.33;;;;;;;18.93;88.78;95952.47;4992146;28;20223;-86
2021/06/07 07:10:05;;;;;;;5.18;1.95;;;;;;;18.94;91.04;95952.25;4991585;28;20211;-86
2021/06/07 07:12:31;;;;;;;1.75;1.65;;;;;;;18.93;89.85;95947.25;4991675;28;20208;-87
2021/06/07 07:14:57;;;;;;;1.75;1.65;;;;;;;18.89;88.19;95956.53;4991178;28;20289;-87
2021/06/07 07:17:23;;;;;;;1.88;1.50;;;;;;;18.90;85.71;95958.91;4989714;28;20215;-86
2021/06/07 07:19:49;;;;;;;1.60;1.50;;;;;;;18.93;85.76;95952.47;4989748;28;20203;-86
2021/06/07 07:22:18;;;;;;;2.80;1.70;;;;;;;19.01;85.78;95959.22;4995371;28;20245;-84
2021/06/07 07:24:45;;;;;;;1.80;1.70;;;;;;;19.02;86.07;95952.97;4997304;28;20222;-85
2021/06/07 07:27:12;;;;;;;1.88;1.73;;;;;;;19.12;85.81;95961.06;4993261;28;20231;-86
2021/06/07 07:29:38;;;;;;;1.65;1.52;;;;;;;19.23;85.50;95953.31;4994278;28;20210;-87
2021/06/07 07:32:06;;;;;;;3.45;1.67;;;;;;;19.28;86.28;95957.84;4993186;28;20222;-87
2021/06/07 07:34:32;;;;;;;2.95;1.77;;;;;;;19.36;86.36;95956.75;4992983;28;20475;-84
2021/06/07 07:36:58;;;;;;;2.08;1.60;;;;;;;19.49;86.48;95961.78;4994414;28;20481;-84
2021/06/07 07:39:26;;;;;;;1.50;1.40;;;;;;;19.57;84.43;95959.69;4988722;28;20207;-86
2021/06/07 07:41:53;;;;;;;2.30;2.10;;;;;;;19.55;83.64;95959.09;4990058;28;20207;-85
2021/06/07 07:44:19;;;;;;;2.42;2.00;;;;;;;19.53;83.43;95955.13;4992463;28;20188;-84
2021/06/07 07:46:46;;;;;;;2.50;2.10;;;;;;;19.52;83.25;95964.78;4993873;28;20623;-85
2021/06/07 07:49:12;;;;;;;2.53;2.33;;;;;;;19.60;82.99;95963.66;4996273;28;20223;-87
2021/06/07 07:51:38;;;;;;;1.80;1.70;;;;;;;19.70;82.09;95957.88;4997072;28;20196;-85
2021/06/07 07:54:07;;;;;;;3.03;1.90;;;;;;;19.75;80.67;95961.44;4996604;28;20195;-85
2021/06/07 07:56:35;;;;;;;3.78;1.90;;;;;;;19.70;82.88;95955.28;4996251;28;20203;-84
2021/06/07 07:59:02;;;;;;;3.83;1.90;;;;;;;19.80;82.53;95961.56;4996987;28;20227;-86
2021/06/07 08:01:28;;;;;;;2.13;1.92;;;;;;;19.89;82.28;95962.00;4996580;28;20231;-87
2021/06/07 08:03:54;;;;;;;1.90;1.80;;;;;;;19.99;82.56;95959.66;4996485;28;20215;-87
2021/06/07 08:06:20;;;;;;;2.55;2.13;;;;;;;20.00;83.50;95967.28;4994977;28;20706;-88
2021/06/07 08:08:46;;;;;;;3.28;1.77;;;;;;;20.13;83.38;95966.25;4995497;28;20258;-86
2021/06/07 08:11:12;;;;;;;2.38;1.90;;;;;;;20.23;83.79;95965.66;4994419;28;20821;-86
2021/06/07 08:13:40;;;;;;;2.88;2.08;;;;;;;20.28;83.38;95956.13;4993228;28;20219;-86
2021/06/07 08:16:07;;;;;;;1.90;1.80;;;;;;;20.29;83.54;95960.34;4993935;28;20207;-86
2021/06/07 08:18:33;;;;;;;2.75;1.85;;;;;;;20.31;83.60;95955.69;4994537;28;20250;-87
2021/06/07 08:20:59;;;;;;;3.05;1.90;;;;;;;20.38;83.53;95960.84;4994997;28;20214;-85
2021/06/07 08:23:25;;;;;;;3.17;1.60;;;;;;;20.40;83.52;95960.59;4994225;28;20203;-85
2021/06/07 08:25:51;;;;;;;2.47;1.70;;;;;;;20.43;83.34;95960.91;4994818;28;20301;-86
2021/06/07 08:28:19;;;;;;;2.35;1.60;;;;;;;20.51;83.21;95962.41;4993289;28;20415;-85
2021/06/07 08:30:47;;;;;;;2.05;1.70;;;;;;;20.50;80.59;95955.56;4994471;28;20207;-86
2021/06/07 08:33:13;;;;;;;1.80;1.70;;;;;;;20.39;78.57;95962.41;5003404;28;20241;-86
2021/06/07 08:35:39;;;;;;;2.55;1.90;;;;;;;20.41;79.14;95962.97;5006365;28;20294;-87
2021/06/07 08:38:06;;;;;;;3.13;1.90;;;;;;;20.39;79.54;95962.41;4996387;28;20233;-88
2021/06/07 08:40:35;;;;;;;3.40;1.83;;;;;;;20.31;80.69;95960.91;4997961;28;20204;-87
2021/06/07 08:43:01;;;;;;;1.88;1.58;;;;;;;20.27;81.35;95965.00;5004422;28;20229;-86
2021/06/07 08:45:32;;;;;;;3.58;1.50;;;;;;;20.30;82.29;95961.13;5000964;28;20623;-86
2021/06/07 08:47:59;;;;;;;2.42;1.85;;;;;;;20.33;82.19;95968.53;4997888;28;20323;-87
2021/06/07 08:50:27;;;;;;;2.10;1.90;;;;;;;20.43;80.86;95955.69;4996226;28;20207;-86
2021/06/07 08:52:54;;;;;;;3.10;1.40;;;;;;;20.61;80.00;95960.78;4995776;28;20207;-86
2021/06/07 08:55:22;;;;;;;1.60;1.50;;;;;;;20.81;75.94;95964.84;4993139;28;20212;-86
2021/06/07 08:57:51;;;;;;;2.75;1.42;;;;;;;20.81;75.32;95957.78;4994632;28;20223;-88
2021/06/07 09:00:19;;;;;;;1.67;1.50;;;;;;;20.77;75.68;95958.50;4993693;28;20198;-87
2021/06/07 09:02:46;;;;;;;3.13;1.40;;;;;;;20.60;76.40;95963.63;4994412;28;20226;-88
2021/06/07 09:05:14;;;;;;;1.77;1.30;;;;;;;20.59;77.29;95962.06;4996393;28;20627;-87
2021/06/07 09:07:53;;;;;;;1.25;1.15;;;;;;;20.53;75.94;95962.97;4991455;28;20250;-88
2021/06/07 09:10:20;;;;;;;1.35;1.25;;;;;;;20.49;76.96;95957.41;4999425;28;20214;-86
2021/06/07 09:12:52;;;;;;;1.00;1.00;;;;;;;20.44;77.39;95967.75;4999802;28;20261;-87
2021/06/07 09:15:30;;;;;;;1.60;1.40;;;;;;;20.26;78.44;95962.59;5001326;28;20207;-86
2021/06/07 09:17:57;;;;;;;1.13;1.02;;;;;;;20.28;78.64;95973.63;4998389;28;20296;-87
2021/06/07 09:20:26;;;;;;;1.77;1.35;;;;;;;20.25;80.13;95968.84;4995160;28;20196;-87
2021/06/07 09:22:54;;;;;;;1.77;1.63;;;;;;;20.28;79.40;95963.16;4993815;28;20569;-88
2021/06/07 09:25:23;;;;;;;1.83;1.45;;;;;;;20.22;79.06;95962.25;4993907;28;20250;-88
2021/06/07 09:28:11;;;;;;;1.85;1.23;;;;;;;20.14;80.67;95969.66;4994996;28;20587;-88
2021/06/07 09:30:52;;;;;;;1.00;1.00;;;;;;;20.02;77.41;95967.00;4993920;28;20213;-88
2021/06/07 09:33:40;;;;;;;1.20;1.13;;;;;;;19.93;79.76;95965.78;4993053;28;20235;-88
2021/06/07 09:36:22;;;;;;;1.40;1.30;;;;;;;19.83;79.17;95963.69;4987442;28;20281;-89
2021/06/07 09:39:15;;;;;;;3.63;1.30;;;;;;;19.85;79.72;95963.47;4997261;28;20270;-89
2021/06/07 09:41:57;;;;;;;2.33;1.60;;;;;;;19.81;80.33;95970.19;4998478;28;20215;-88
2021/06/07 09:44:30;;;;;;;1.30;1.20;;;;;;;19.86;80.93;95972.91;4998186;28;20198;-88
2021/06/07 09:47:09;;;;;;;2.25;1.60;;;;;;;19.82;80.82;95963.94;4995364;28;20227;-87
2021/06/07 09:49:39;;;;;;;1.40;1.30;;;;;;;19.91;81.81;95971.22;4992210;28;20350;-88
2021/06/07 09:52:13;;;;;;;2.05;1.42;;;;;;;19.88;81.16;95973.47;4993719;28;20582;-88
2021/06/07 09:54:39;;;;;;;1.30;1.25;;;;;;;19.86;81.98;95976.31;4997343;28;20264;-88
2021/06/07 09:57:06;;;;;;;2.58;1.50;;;;;;;19.95;80.83;95976.81;4996806;28;20199;-88
2021/06/07 09:59:34;;;;;;;1.50;1.40;;;;;;;19.91;79.55;95971.22;4995333;28;20203;-87
2021/06/07 10:02:02;;;;;;;1.73;1.50;;;;;;;19.96;81.24;95978.41;4996540;28;20204;-88
2021/06/07 10:04:58;;;;;;;2.25;1.48;;;;;;;20.07;80.28;95982.03;4992990;28;20208;-87
2021/06/07 10:07:26;;;;;;;1.60;1.50;;;;;;;20.06;77.57;95973.41;4957477;28;20267;-86
2021/06/07 10:10:16;;;;;;;1.30;1.20;;;;;;;20.02;75.98;95975.66;4993136;28;20203;-87
2021/06/07 10:12:44;;;;;;;1.45;1.33;;;;;;;20.10;78.07;95968.50;4993010;28;20211;-87
2021/06/07 10:15:12;;;;;;;1.73;1.02;;;;;;;20.18;77.76;95976.03;4993060;28;20223;-87
2021/06/07 10:17:38;;;;;;;1.33;1.23;;;;;;;20.28;77.13;95968.41;4993223;28;20230;-88
2021/06/07 10:22:53;;;;;;;1.77;1.50;;;;;;;20.33;73.97;95969.31;4987631;28;20235;-88
2021/06/07 10:25:19;;;;;;;1.63;1.40;;;;;;;20.45;76.41;95973.78;4991557;28;20227;-87
2021/06/07 10:27:45;;;;;;;1.58;1.40;;;;;;;20.58;75.80;95974.34;4992929;28;20237;-88
2021/06/07 10:30:17;;;;;;;1.40;1.30;;;;;;;20.68;74.94;95971.13;4994600;28;20208;-87
2021/06/07 10:32:43;;;;;;;1.92;1.50;;;;;;;20.81;76.28;95976.09;4990157;28;20237;-88
2021/06/07 10:35:11;;;;;;;1.70;1.60;;;;;;;20.83;75.18;95974.06;4994385;28;20221;-87
2021/06/07 10:38:04;;;;;;;1.70;1.60;;;;;;;20.91;73.45;95975.53;4998308;28;20256;-87
2021/06/07 10:40:33;;;;;;;2.70;1.83;;;;;;;20.86;72.88;95970.19;4997082;28;20251;-88
2021/06/07 10:43:05;;;;;;;1.50;1.30;;;;;;;20.72;71.72;95977.50;4997224;28;20211;-88
2021/06/07 10:45:36;;;;;;;3.17;1.80;;;;;;;20.74;73.36;95970.22;4996690;28;20786;-87
2021/06/07 10:48:04;;;;;;;3.85;1.20;;;;;;;20.71;70.72;95970.69;4991952;28;20234;-88
2021/06/07 10:50:32;;;;;;;2.00;1.42;;;;;;;20.67;71.83;95970.34;4992298;28;21070;-88
2021/06/07 10:53:06;;;;;;;2.05;1.40;;;;;;;20.60;72.69;95977.50;4992678;28;20356;-88
2021/06/07 10:55:34;;;;;;;1.58;1.20;;;;;;;20.57;71.96;95980.59;4992632;28;20238;-88
2021/06/07 10:58:01;;;;;;;1.42;1.30;;;;;;;20.53;72.01;95974.22;4993343;28;20243;-88
2021/06/07 11:00:36;;;;;;;1.75;1.35;;;;;;;20.48;71.74;95975.94;4994362;28;20211;-87
2021/06/07 11:03:05;;;;;;;1.63;1.52;;;;;;;20.45;73.56;95971.94;4994136;28;20202;-87
2021/06/07 11:05:39;;;;;;;1.90;1.80;;;;;;;20.50;74.05;95966.84;4993051;28;20274;-89
2021/06/07 11:08:11;;;;;;;1.80;1.70;;;;;;;20.45;71.18;95966.72;4995096;28;20230;-87
2021/06/07 11:10:40;;;;;;;1.70;1.60;;;;;;;20.46;71.10;95970.94;4994916;28;20625;-87
2021/06/07 11:13:09;;;;;;;2.50;1.50;;;;;;;20.50;71.11;95968.66;4994678;28;20667;-87
2021/06/07 11:15:59;;;;;;;2.00;1.80;;;;;;;20.46;71.93;95973.53;4994942;28;20211;-87
2021/06/07 11:18:31;;;;;;;1.70;1.60;;;;;;;20.43;71.63;95965.34;4996553;28;20228;-88
2021/06/07 11:21:00;;;;;;;1.75;1.65;;;;;;;20.44;73.85;95972.19;4995482;28;20204;-86
2021/06/07 11:23:37;;;;;;;1.92;1.70;;;;;;;20.46;72.73;95967.50;4993307;28;20207;-87
2021/06/07 11:26:10;;;;;;;2.17;1.60;;;;;;;20.54;71.82;95962.75;4997568;28;20199;-86
2021/06/07 11:28:46;;;;;;;1.75;1.65;;;;;;;20.66;70.87;95970.56;4997600;28;20673;-87
2021/06/07 11:34:46;;;;;;;3.25;2.13;;;;;;;20.86;71.08;95970.19;4958708;29;20406;-88
2021/06/07 11:37:34;;;;;;;3.72;1.75;;;;;;;21.07;67.65;95963.53;4956920;28;20205;-88
2021/06/07 11:40:04;;;;;;;2.50;2.30;;;;;;;21.13;67.65;95955.56;4980514;28;20208;-86
2021/06/07 11:42:31;;;;;;;2.03;1.92;;;;;;;21.25;68.02;95947.66;4999817;28;20245;-87